Time;durP1;ratioP1;P1;durP2;ratioP2;P2;SDS_P1;SDS_P2;PMS_P1;PMS_P2;Temp;Humidity;BMP_temperature;BMP_pressure;BME280_temperature;BME280_humidity;BME280_pressure;Samples;Min_cycle;Max_cycle;Signal;HPM_P1;HPM_P2
2024/02/18 00:00:07;;;;;;;10.60;8.02;;;7.10;99.90;;;;;;5076688;28;20250;-61
2024/02/18 00:02:34;;;;;;;8.77;7.30;;;7.10;99.90;;;;;;5075527;28;20196;-63
2024/02/18 00:05:01;;;;;;;9.57;7.57;;;7.10;99.90;;;;;;5075596;28;20685;-61
2024/02/18 00:07:28;;;;;;;9.65;7.75;;;7.00;99.90;;;;;;5075472;28;20196;-62
2024/02/18 00:09:56;;;;;;;11.45;8.95;;;6.90;99.90;;;;;;5075155;28;20689;-62
2024/02/18 00:12:24;;;;;;;10.00;8.57;;;6.80;99.90;;;;;;5075619;28;20205;-62
2024/02/18 00:14:51;;;;;;;11.43;8.50;;;6.80;99.90;;;;;;5075437;28;20209;-63
2024/02/18 00:17:18;;;;;;;9.95;7.68;;;6.70;99.90;;;;;;5074795;28;20330;-61
2024/02/18 00:19:45;;;;;;;10.05;7.30;;;6.70;99.90;;;;;;5076192;28;20283;-61
2024/02/18 00:22:11;;;;;;;25.42;8.88;;;6.60;99.90;;;;;;5084599;28;20205;-62
2024/02/18 00:24:38;;;;;;;11.15;7.68;;;6.50;99.90;;;;;;5077104;28;20213;-62
2024/02/18 00:27:09;;;;;;;9.88;8.10;;;6.50;99.90;;;;;;5073640;28;20235;-63
2024/02/18 00:29:36;;;;;;;10.63;8.30;;;6.40;99.90;;;;;;5077307;28;20181;-63
2024/02/18 00:32:03;;;;;;;9.10;7.68;;;6.40;99.90;;;;;;5078041;28;20208;-62
2024/02/18 00:34:30;;;;;;;10.15;8.43;;;6.40;99.90;;;;;;5078043;28;20212;-62
2024/02/18 00:36:57;;;;;;;9.20;8.25;;;6.30;99.90;;;;;;5077854;28;20221;-62
2024/02/18 00:39:23;;;;;;;8.80;7.82;;;6.30;99.90;;;;;;5077849;28;20227;-62
2024/02/18 00:41:50;;;;;;;11.82;8.85;;;6.30;99.90;;;;;;5077852;28;20197;-63
2024/02/18 00:44:23;;;;;;;14.35;8.30;;;6.30;99.90;;;;;;5077770;28;20208;-63
2024/02/18 00:46:50;;;;;;;11.20;8.65;;;6.30;99.90;;;;;;5077722;28;20233;-62
2024/02/18 00:49:17;;;;;;;12.43;9.07;;;6.30;99.90;;;;;;5077824;28;20196;-62
2024/02/18 00:51:43;;;;;;;10.82;7.80;;;6.20;99.90;;;;;;5078380;28;20205;-62
2024/02/18 00:54:10;;;;;;;10.73;8.13;;;6.20;99.90;;;;;;5078563;28;20201;-63
2024/02/18 00:56:37;;;;;;;12.27;9.10;;;6.20;99.90;;;;;;5079056;28;20225;-62
2024/02/18 00:59:04;;;;;;;9.70;8.70;;;6.20;99.90;;;;;;5081412;28;20221;-61
2024/02/18 01:01:32;;;;;;;10.30;8.20;;;6.20;99.90;;;;;;5082347;28;20209;-62
2024/02/18 01:03:59;;;;;;;9.18;8.23;;;6.20;99.90;;;;;;5084143;28;20259;-62
2024/02/18 01:06:26;;;;;;;9.73;8.70;;;6.20;99.90;;;;;;5083601;28;20725;-62
2024/02/18 01:08:53;;;;;;;13.25;9.38;;;6.20;99.90;;;;;;5085596;28;20275;-63
2024/02/18 01:11:19;;;;;;;9.00;7.95;;;6.20;99.90;;;;;;5087484;28;20271;-62
2024/02/18 01:13:46;;;;;;;13.90;9.75;;;6.10;99.90;;;;;;5093896;28;20205;-62
2024/02/18 01:16:13;;;;;;;11.48;8.80;;;6.10;99.90;;;;;;5092501;28;20332;-62
2024/02/18 01:18:42;;;;;;;10.95;8.90;;;6.10;99.90;;;;;;5085490;28;20216;-63
2024/02/18 01:21:09;;;;;;;12.00;8.88;;;6.10;99.90;;;;;;5079026;28;20722;-62
2024/02/18 01:23:36;;;;;;;12.80;10.10;;;6.00;99.90;;;;;;5077864;28;20197;-61
2024/02/18 01:26:04;;;;;;;9.40;8.57;;;6.00;99.90;;;;;;5077658;28;20691;-62
2024/02/18 01:28:31;;;;;;;11.35;9.50;;;5.90;99.90;;;;;;5078359;28;20292;-61
2024/02/18 01:30:57;;;;;;;10.43;9.13;;;5.90;99.90;;;;;;5077894;28;20284;-61
2024/02/18 01:33:24;;;;;;;11.45;9.35;;;5.90;99.90;;;;;;5079242;28;20204;-62
2024/02/18 01:35:52;;;;;;;10.00;9.00;;;5.80;99.90;;;;;;5079154;28;20225;-62
2024/02/18 01:38:19;;;;;;;12.00;9.90;;;5.80;99.90;;;;;;5078367;28;20221;-62
2024/02/18 01:40:46;;;;;;;15.27;10.32;;;5.80;99.90;;;;;;5077578;28;20637;-62
2024/02/18 01:43:13;;;;;;;13.05;10.48;;;5.90;99.90;;;;;;5079744;28;20205;-61
2024/02/18 01:45:39;;;;;;;14.07;9.95;;;5.90;99.90;;;;;;5078851;28;20264;-62
2024/02/18 01:48:07;;;;;;;12.63;10.70;;;5.90;99.90;;;;;;5078601;28;20200;-61
2024/02/18 01:50:34;;;;;;;14.68;10.10;;;5.90;99.90;;;;;;5077637;28;20207;-61
2024/02/18 01:53:02;;;;;;;13.73;10.63;;;5.80;99.90;;;;;;5077121;28;20209;-62
2024/02/18 01:55:29;;;;;;;13.80;10.88;;;5.80;99.90;;;;;;5076435;28;20226;-61
2024/02/18 01:57:56;;;;;;;13.57;11.18;;;5.80;99.90;;;;;;5082686;28;20515;-63
2024/02/18 02:00:24;;;;;;;11.88;9.60;;;5.80;99.90;;;;;;5085682;28;20212;-63
2024/02/18 02:02:51;;;;;;;16.25;10.10;;;5.80;99.90;;;;;;5082790;28;20231;-62
2024/02/18 02:05:20;;;;;;;15.00;10.48;;;5.80;99.90;;;;;;5079545;28;20217;-62
2024/02/18 02:07:48;;;;;;;15.10;11.65;;;5.80;99.90;;;;;;5080319;28;20197;-62
2024/02/18 02:10:17;;;;;;;13.05;10.80;;;5.80;99.90;;;;;;5079294;28;20228;-62
2024/02/18 02:12:45;;;;;;;14.73;12.10;;;5.70;99.90;;;;;;5078102;28;20296;-62
2024/02/18 02:15:13;;;;;;;15.40;11.75;;;5.70;99.90;;;;;;5075800;28;20205;-62
2024/02/18 02:17:40;;;;;;;15.43;11.38;;;5.70;99.90;;;;;;5075998;28;20213;-63
2024/02/18 02:20:09;;;;;;;16.58;11.90;;;5.70;99.90;;;;;;5075511;28;20204;-61
2024/02/18 02:22:36;;;;;;;16.30;12.55;;;5.70;99.90;;;;;;5075758;28;20207;-62
2024/02/18 02:25:03;;;;;;;15.90;13.13;;;5.80;99.90;;;;;;5075943;28;20201;-63
2024/02/18 02:27:37;;;;;;;16.05;12.10;;;5.80;99.90;;;;;;5075545;28;20225;-63
2024/02/18 02:30:06;;;;;;;18.20;12.55;;;5.80;99.90;;;;;;5075518;28;20268;-62
2024/02/18 02:32:34;;;;;;;18.00;12.30;;;5.80;99.90;;;;;;5075609;28;20201;-62
2024/02/18 02:35:02;;;;;;;21.73;13.40;;;5.70;99.90;;;;;;5075412;28;20205;-62
2024/02/18 02:37:29;;;;;;;14.52;12.63;;;5.70;99.90;;;;;;5082406;28;20212;-63
2024/02/18 02:39:55;;;;;;;18.13;13.55;;;5.70;99.90;;;;;;5086985;28;20221;-60
2024/02/18 02:42:22;;;;;;;16.92;12.30;;;5.70;99.90;;;;;;5087580;28;20633;-62
2024/02/18 02:44:49;;;;;;;18.42;13.05;;;5.70;99.90;;;;;;5089604;28;20211;-62
2024/02/18 02:47:17;;;;;;;23.65;14.68;;;5.70;99.90;;;;;;5088295;28;20227;-61
2024/02/18 02:49:44;;;;;;;19.13;13.57;;;5.70;99.90;;;;;;5087371;28;20260;-62
2024/02/18 02:52:11;;;;;;;15.70;13.10;;;5.70;99.90;;;;;;5083724;28;20663;-62
2024/02/18 02:54:38;;;;;;;21.30;14.27;;;5.60;99.90;;;;;;5084968;28;20215;-62
2024/02/18 02:57:05;;;;;;;22.38;14.02;;;5.60;99.90;;;;;;5083839;28;20664;-62
2024/02/18 02:59:32;;;;;;;21.08;13.10;;;5.60;99.90;;;;;;5087338;28;20702;-61
2024/02/18 03:01:59;;;;;;;19.08;13.20;;;5.60;99.90;;;;;;5092869;28;20299;-61
2024/02/18 03:04:27;;;;;;;24.02;14.20;;;5.60;99.90;;;;;;5092769;28;20273;-62
2024/02/18 03:06:54;;;;;;;25.10;14.70;;;5.60;99.90;;;;;;5093339;28;20244;-63
2024/02/18 03:09:20;;;;;;;28.25;14.38;;;5.60;99.90;;;;;;5093548;28;20257;-62
2024/02/18 03:11:47;;;;;;;29.90;15.77;;;5.60;99.90;;;;;;5093655;28;20209;-63
2024/02/18 03:14:15;;;;;;;23.38;14.43;;;5.60;99.90;;;;;;5094365;28;20203;-62
2024/02/18 03:16:43;;;;;;;23.48;14.45;;;5.60;99.90;;;;;;5094032;28;20228;-63
2024/02/18 03:19:10;;;;;;;24.75;16.58;;;5.60;99.90;;;;;;5093798;28;20287;-62
2024/02/18 03:21:39;;;;;;;23.08;15.07;;;5.60;99.90;;;;;;5094054;28;20205;-62
2024/02/18 03:24:06;;;;;;;30.20;17.10;;;5.60;99.90;;;;;;5093359;28;20232;-62
2024/02/18 03:26:34;;;;;;;28.58;16.67;;;5.60;99.90;;;;;;5080477;28;20231;-62
2024/02/18 03:29:01;;;;;;;28.17;16.73;;;5.60;99.90;;;;;;5078607;28;20246;-63
2024/02/18 03:31:29;;;;;;;34.25;19.20;;;5.60;99.90;;;;;;5075161;28;20267;-62
2024/02/18 03:33:56;;;;;;;28.98;17.95;;;5.60;99.90;;;;;;5077927;28;20300;-62
2024/02/18 03:36:23;;;;;;;26.77;16.83;;;5.70;99.90;;;;;;5083002;28;20225;-62
2024/02/18 03:38:51;;;;;;;35.10;17.63;;;5.70;99.90;;;;;;5083909;28;20224;-63
2024/02/18 03:41:18;;;;;;;36.47;18.92;;;5.70;99.90;;;;;;5080659;28;20204;-62
2024/02/18 03:43:45;;;;;;;31.92;17.98;;;5.70;99.90;;;;;;5077417;28;20308;-62
2024/02/18 03:46:12;;;;;;;36.53;18.52;;;5.80;99.90;;;;;;5075699;28;20232;-63
2024/02/18 03:48:38;;;;;;;27.95;16.70;;;5.80;99.90;;;;;;5075490;28;20196;-62
2024/02/18 03:51:05;;;;;;;31.60;19.15;;;5.80;99.90;;;;;;5074780;28;20205;-63
2024/02/18 03:53:32;;;;;;;33.53;19.30;;;5.80;99.90;;;;;;5074828;28;20201;-62
2024/02/18 03:56:00;;;;;;;37.80;20.55;;;5.80;99.90;;;;;;5074535;28;20228;-63
2024/02/18 03:58:27;;;;;;;36.13;19.13;;;5.90;99.90;;;;;;5074906;28;20211;-63
2024/02/18 04:00:54;;;;;;;34.47;18.75;;;5.90;99.90;;;;;;5074486;28;20207;-62
2024/02/18 04:03:21;;;;;;;41.28;19.08;;;5.90;99.90;;;;;;5074194;28;20210;-62
2024/02/18 04:05:48;;;;;;;34.45;18.52;;;5.90;99.90;;;;;;5074236;28;20661;-62
2024/02/18 04:08:14;;;;;;;35.97;20.60;;;5.90;99.90;;;;;;5074331;28;20212;-63
2024/02/18 04:13:14;;;;;;;36.75;19.42;;;5.90;99.90;;;;;;5091282;27;20603;-62
2024/02/18 04:15:41;;;;;;;37.17;19.42;;;5.90;99.90;;;;;;5091704;28;20240;-62
2024/02/18 04:18:08;;;;;;;31.60;18.52;;;5.90;99.90;;;;;;5091328;28;20200;-62
2024/02/18 04:20:34;;;;;;;34.20;19.35;;;5.90;99.90;;;;;;5091656;28;20213;-62
2024/02/18 04:23:02;;;;;;;39.85;20.58;;;5.90;99.90;;;;;;5092210;28;20200;-62
2024/02/18 04:25:29;;;;;;;35.50;18.92;;;5.90;99.90;;;;;;5093261;28;20227;-62
2024/02/18 04:27:55;;;;;;;38.33;21.60;;;6.00;99.90;;;;;;5092135;28;20202;-62
2024/02/18 04:30:24;;;;;;;36.25;19.50;;;6.00;99.90;;;;;;5092191;28;20214;-62
2024/02/18 04:32:50;;;;;;;38.05;19.70;;;6.00;99.90;;;;;;5091215;28;20224;-62
2024/02/18 04:35:17;;;;;;;40.88;20.35;;;6.00;99.90;;;;;;5091042;28;20197;-62
2024/02/18 04:37:44;;;;;;;34.60;17.80;;;6.00;99.90;;;;;;5095359;28;20217;-63
2024/02/18 04:40:12;;;;;;;34.55;18.55;;;6.00;99.90;;;;;;5095997;28;20201;-62
2024/02/18 04:42:39;;;;;;;39.80;19.58;;;6.00;99.90;;;;;;5102537;28;20239;-62
2024/02/18 04:45:07;;;;;;;30.10;17.70;;;6.00;99.90;;;;;;5099389;28;20206;-62
2024/02/18 04:47:35;;;;;;;36.03;20.10;;;6.00;99.90;;;;;;5095790;28;20207;-62
2024/02/18 04:50:04;;;;;;;28.08;18.20;;;6.00;99.90;;;;;;5093387;28;20206;-63
2024/02/18 04:52:30;;;;;;;32.90;19.00;;;6.10;99.90;;;;;;5100672;28;20252;-62
2024/02/18 04:54:57;;;;;;;36.88;19.63;;;6.10;99.90;;;;;;5100701;28;20307;-61
2024/02/18 04:57:24;;;;;;;37.90;19.35;;;6.10;99.90;;;;;;5097391;28;20286;-62
2024/02/18 04:59:51;;;;;;;40.35;19.88;;;6.10;99.90;;;;;;5095038;28;20207;-64
2024/02/18 05:02:17;;;;;;;38.97;19.35;;;6.10;99.90;;;;;;5102451;22;20238;-59
2024/02/18 05:04:45;;;;;;;33.88;19.95;;;6.10;99.90;;;;;;5070144;28;20206;-60
2024/02/18 05:07:12;;;;;;;34.65;19.98;;;6.20;99.90;;;;;;5069661;28;20694;-60
2024/02/18 05:09:39;;;;;;;37.65;19.80;;;6.20;99.90;;;;;;5071501;28;20206;-60
2024/02/18 05:12:06;;;;;;;35.30;20.65;;;6.20;99.90;;;;;;5071933;28;20223;-60
2024/02/18 05:14:33;;;;;;;38.40;20.52;;;6.20;99.90;;;;;;5069261;28;20199;-60
2024/02/18 05:17:00;;;;;;;41.08;19.10;;;6.20;99.90;;;;;;5069265;28;20202;-59
2024/02/18 05:19:27;;;;;;;34.22;19.33;;;6.20;99.90;;;;;;5069071;28;20207;-59
2024/02/18 05:21:55;;;;;;;32.22;20.00;;;6.20;99.90;;;;;;5068716;28;20254;-60
2024/02/18 05:24:22;;;;;;;35.22;19.60;;;6.30;99.90;;;;;;5056690;28;20553;-60
2024/02/18 05:26:49;;;;;;;35.65;18.92;;;6.30;99.90;;;;;;5055816;28;20209;-59
2024/02/18 05:29:15;;;;;;;43.08;21.70;;;6.40;99.90;;;;;;5055383;28;20204;-59
2024/02/18 05:31:42;;;;;;;44.38;20.95;;;6.40;99.90;;;;;;5055648;28;20228;-60
2024/02/18 05:34:09;;;;;;;40.78;22.65;;;6.50;99.90;;;;;;5055295;28;20210;-60
2024/02/18 05:36:39;;;;;;;36.28;19.13;;;6.60;99.90;;;;;;5055939;28;20228;-59
2024/02/18 05:39:07;;;;;;;33.30;20.02;;;6.60;99.90;;;;;;5055456;28;20767;-60
2024/02/18 05:41:33;;;;;;;42.20;21.45;;;6.70;99.90;;;;;;5055488;28;20227;-60
2024/02/18 05:44:00;;;;;;;37.78;20.45;;;6.80;99.90;;;;;;5055535;28;20202;-60
2024/02/18 05:46:27;;;;;;;32.55;20.33;;;6.80;99.90;;;;;;5055259;28;20200;-59
2024/02/18 05:48:54;;;;;;;41.72;23.20;;;6.90;99.90;;;;;;5055165;28;20203;-60
2024/02/18 05:51:21;;;;;;;47.90;24.45;;;7.00;99.90;;;;;;5055086;28;20224;-60
2024/02/18 05:53:47;;;;;;;40.55;22.20;;;7.00;99.90;;;;;;5055100;28;20213;-60
2024/02/18 05:56:16;;;;;;;42.67;22.50;;;7.00;99.90;;;;;;5055298;28;20325;-61
2024/02/18 05:58:42;;;;;;;42.90;21.13;;;7.10;99.90;;;;;;5055246;28;20209;-60
2024/02/18 06:01:09;;;;;;;35.78;20.92;;;7.20;99.90;;;;;;5054991;28;20605;-60
2024/02/18 06:03:36;;;;;;;40.33;22.42;;;7.20;99.90;;;;;;5054836;28;20201;-61
2024/02/18 06:06:03;;;;;;;32.70;19.52;;;7.30;99.90;;;;;;5055154;28;20234;-60
2024/02/18 06:08:29;;;;;;;36.63;20.15;;;7.30;99.90;;;;;;5054993;28;20669;-60
2024/02/18 06:10:56;;;;;;;37.85;20.80;;;7.40;99.90;;;;;;5055093;28;20262;-59
2024/02/18 06:13:24;;;;;;;36.50;21.27;;;7.40;99.90;;;;;;5054904;28;20223;-60
2024/02/18 06:15:51;;;;;;;35.75;21.52;;;7.40;99.90;;;;;;5055630;28;20205;-60
2024/02/18 06:18:18;;;;;;;33.30;18.67;;;7.50;99.90;;;;;;5055146;28;20204;-61
2024/02/18 06:20:45;;;;;;;31.13;19.20;;;7.50;99.90;;;;;;5054962;28;20203;-60
2024/02/18 06:23:12;;;;;;;33.35;19.10;;;7.50;99.90;;;;;;5056275;28;20197;-60
2024/02/18 06:25:39;;;;;;;33.72;18.65;;;7.50;99.90;;;;;;5054636;28;20209;-60
2024/02/18 06:28:07;;;;;;;30.65;19.70;;;7.60;99.90;;;;;;5054850;28;20206;-61
2024/02/18 06:30:35;;;;;;;34.60;18.70;;;7.60;99.90;;;;;;5054294;28;20203;-61
2024/02/18 06:33:02;;;;;;;29.77;18.98;;;7.60;99.90;;;;;;5055024;28;20241;-61
2024/02/18 06:35:29;;;;;;;33.90;18.20;;;7.60;99.90;;;;;;5053565;28;20203;-60
2024/02/18 06:37:57;;;;;;;28.35;16.85;;;7.70;99.90;;;;;;5054548;28;20228;-64
2024/02/18 06:40:24;;;;;;;29.95;18.17;;;7.70;99.90;;;;;;5054419;28;20216;-60
2024/02/18 06:42:51;;;;;;;27.30;17.63;;;7.70;99.90;;;;;;5054038;28;20220;-60
2024/02/18 06:45:18;;;;;;;32.28;19.35;;;7.80;99.90;;;;;;5054118;28;20674;-60
2024/02/18 06:47:47;;;;;;;31.17;17.15;;;7.80;99.90;;;;;;5053898;28;20215;-62
2024/02/18 06:50:14;;;;;;;31.52;17.48;;;7.80;99.90;;;;;;5054442;28;20211;-61
2024/02/18 06:52:41;;;;;;;25.13;17.85;;;7.80;99.90;;;;;;5054211;28;20280;-60
2024/02/18 06:55:09;;;;;;;26.10;16.52;;;7.90;99.90;;;;;;5054200;28;20211;-62
2024/02/18 06:57:36;;;;;;;28.20;15.65;;;7.90;99.90;;;;;;5053922;28;20208;-59
2024/02/18 07:00:04;;;;;;;26.50;16.00;;;7.90;99.90;;;;;;5054195;28;20209;-61
2024/02/18 07:02:30;;;;;;;22.83;15.18;;;8.00;99.90;;;;;;5054791;28;20286;-60
2024/02/18 07:04:59;;;;;;;25.45;15.98;;;8.00;99.90;;;;;;5057232;28;20238;-61
2024/02/18 07:07:26;;;;;;;23.73;15.57;;;8.00;99.90;;;;;;5055891;28;20208;-61
2024/02/18 07:09:53;;;;;;;25.42;14.70;;;8.10;99.90;;;;;;5054412;28;20208;-60
2024/02/18 07:12:20;;;;;;;24.23;14.52;;;8.10;99.90;;;;;;5053872;28;20228;-60
2024/02/18 07:14:46;;;;;;;23.55;14.45;;;8.10;99.90;;;;;;5053996;28;20661;-60
2024/02/18 07:17:19;;;;;;;20.05;13.73;;;8.20;99.90;;;;;;5053994;28;20207;-61
2024/02/18 07:19:46;;;;;;;23.55;15.05;;;8.20;99.90;;;;;;5053858;28;20571;-60
2024/02/18 07:22:14;;;;;;;20.58;13.18;;;8.30;99.90;;;;;;5054118;28;20633;-60
2024/02/18 07:24:41;;;;;;;23.15;14.48;;;8.30;99.90;;;;;;5058749;28;20203;-60
2024/02/18 07:27:08;;;;;;;20.90;13.57;;;8.40;99.90;;;;;;5059965;28;20207;-60
2024/02/18 07:29:35;;;;;;;23.25;13.52;;;8.40;99.90;;;;;;5055711;28;20692;-59
2024/02/18 07:32:01;;;;;;;18.77;13.18;;;8.50;99.90;;;;;;5055044;28;20222;-60
2024/02/18 07:34:28;;;;;;;22.08;13.25;;;8.50;99.90;;;;;;5054350;28;20201;-60
2024/02/18 07:36:55;;;;;;;19.13;12.77;;;8.60;99.90;;;;;;5054362;28;20696;-59
2024/02/18 07:39:24;;;;;;;18.70;11.13;;;8.60;99.90;;;;;;5054541;28;20455;-57
2024/02/18 07:41:51;;;;;;;19.92;13.30;;;8.60;99.90;;;;;;5054104;28;20769;-60
2024/02/18 07:44:17;;;;;;;20.00;12.90;;;8.70;99.90;;;;;;5053868;28;20692;-61
2024/02/18 07:46:45;;;;;;;16.45;12.35;;;8.80;99.90;;;;;;5055034;28;20221;-60
2024/02/18 07:49:15;;;;;;;17.57;12.07;;;8.80;99.90;;;;;;5053330;28;20225;-60
2024/02/18 07:51:42;;;;;;;17.08;12.23;;;8.80;99.90;;;;;;5053524;28;20471;-59
2024/02/18 07:54:09;;;;;;;17.95;12.02;;;8.80;99.90;;;;;;5053139;28;20232;-60
2024/02/18 07:56:44;;;;;;;18.48;11.30;;;8.80;99.90;;;;;;5053178;28;20198;-60
2024/02/18 07:59:11;;;;;;;19.03;12.03;;;8.90;99.90;;;;;;5052889;28;20183;-60
2024/02/18 08:01:38;;;;;;;20.00;12.70;;;9.00;99.90;;;;;;5052632;28;20541;-61
2024/02/18 08:04:04;;;;;;;16.27;10.83;;;9.00;99.90;;;;;;5053085;28;20434;-61
2024/02/18 08:06:32;;;;;;;19.70;12.87;;;9.10;99.90;;;;;;5053449;28;20452;-59
2024/02/18 08:08:59;;;;;;;17.73;12.33;;;9.20;99.90;;;;;;5053273;28;20441;-61
2024/02/18 08:11:26;;;;;;;16.30;11.03;;;9.20;99.90;;;;;;5052880;28;20467;-61
2024/02/18 08:13:54;;;;;;;14.48;11.00;;;9.30;99.90;;;;;;5053238;28;20477;-61
2024/02/18 08:16:21;;;;;;;17.60;12.63;;;9.40;99.90;;;;;;5053290;28;20213;-61
2024/02/18 08:18:48;;;;;;;15.70;10.97;;;9.50;99.90;;;;;;5052788;28;20447;-60
2024/02/18 08:21:14;;;;;;;18.57;10.60;;;9.50;99.90;;;;;;5053245;28;20460;-60
2024/02/18 08:23:41;;;;;;;13.70;10.70;;;9.60;99.90;;;;;;5053169;28;20443;-60
2024/02/18 08:26:08;;;;;;;16.30;11.50;;;9.70;99.90;;;;;;5053318;28;20460;-60
2024/02/18 08:28:35;;;;;;;14.33;10.63;;;9.70;99.90;;;;;;5053231;28;20460;-60
2024/02/18 08:31:03;;;;;;;13.20;10.10;;;9.80;99.90;;;;;;5053149;28;20839;-59
2024/02/18 08:33:31;;;;;;;18.53;12.23;;;9.90;99.90;;;;;;5052581;28;20477;-60
2024/02/18 08:35:57;;;;;;;13.70;10.23;;;10.00;99.90;;;;;;5053094;28;20454;-60
2024/02/18 08:38:24;;;;;;;13.53;10.70;;;10.10;99.90;;;;;;5052805;28;20450;-59
2024/02/18 08:40:51;;;;;;;14.50;10.57;;;10.20;99.90;;;;;;5052649;28;20450;-59
2024/02/18 08:43:18;;;;;;;15.63;9.50;;;10.30;99.90;;;;;;5052456;28;20438;-60
2024/02/18 08:45:44;;;;;;;11.90;9.20;;;10.30;99.90;;;;;;5052550;28;20446;-59
2024/02/18 08:48:13;;;;;;;12.37;8.57;;;10.40;99.90;;;;;;5052639;28;20463;-61
2024/02/18 08:50:40;;;;;;;13.90;9.57;;;10.50;99.90;;;;;;5052724;28;20457;-59
2024/02/18 08:53:08;;;;;;;15.07;9.60;;;10.50;99.90;;;;;;5054084;28;20478;-60
2024/02/18 08:55:36;;;;;;;14.97;9.30;;;10.60;99.90;;;;;;5053931;28;20454;-60
2024/02/18 08:58:04;;;;;;;11.30;9.10;;;10.70;99.90;;;;;;5055510;28;20447;-62
2024/02/18 09:00:31;;;;;;;14.30;9.93;;;10.70;99.90;;;;;;5061420;28;20455;-60
2024/02/18 09:02:58;;;;;;;13.77;9.27;;;10.80;99.90;;;;;;5055821;28;20477;-60
2024/02/18 09:05:27;;;;;;;11.83;8.30;;;10.90;99.90;;;;;;5056090;28;20477;-60
2024/02/18 09:07:54;;;;;;;14.53;10.13;;;11.00;99.90;;;;;;5055807;28;20936;-60
2024/02/18 09:10:21;;;;;;;9.60;8.10;;;11.10;99.90;;;;;;5056361;28;20448;-62
2024/02/18 09:12:47;;;;;;;11.93;8.93;;;11.10;99.90;;;;;;5055990;28;20493;-61
2024/02/18 09:15:14;;;;;;;11.07;8.67;;;11.20;99.90;;;;;;5056039;28;20445;-61
2024/02/18 09:17:41;;;;;;;10.67;7.80;;;11.20;99.90;;;;;;5056139;28;20468;-62
2024/02/18 09:20:09;;;;;;;11.73;8.70;;;11.20;99.90;;;;;;5056159;28;20450;-62
2024/02/18 09:22:37;;;;;;;11.80;8.47;;;11.30;99.90;;;;;;5055725;28;20471;-60
2024/02/18 09:25:04;;;;;;;10.43;7.57;;;11.40;99.90;;;;;;5055816;28;20464;-61
2024/02/18 09:27:31;;;;;;;13.00;8.50;;;11.40;99.90;;;;;;5055431;28;20934;-60
2024/02/18 09:29:57;;;;;;;8.63;7.70;;;11.40;99.90;;;;;;5056617;28;20491;-60
2024/02/18 09:32:24;;;;;;;11.37;8.10;;;11.40;99.90;;;;;;5055627;28;20472;-60
2024/02/18 09:34:51;;;;;;;10.73;7.50;;;11.50;99.90;;;;;;5055961;28;20465;-60
2024/02/18 09:37:18;;;;;;;9.13;7.77;;;11.60;99.90;;;;;;5056098;28;20473;-59
2024/02/18 09:39:46;;;;;;;9.80;7.53;;;11.70;99.90;;;;;;5055697;28;20465;-61
2024/02/18 09:42:13;;;;;;;12.70;8.30;;;11.70;99.90;;;;;;5056410;28;20984;-61
2024/02/18 09:44:41;;;;;;;13.37;9.27;;;11.80;99.90;;;;;;5057121;28;20446;-61
2024/02/18 09:47:12;;;;;;;12.43;8.10;;;11.80;99.90;;;;;;5058230;28;20449;-61
2024/02/18 09:49:39;;;;;;;11.30;8.40;;;11.90;99.90;;;;;;5059744;28;20448;-60
2024/02/18 09:52:07;;;;;;;11.07;8.03;;;12.00;99.90;;;;;;5060069;28;20489;-60
2024/02/18 09:54:35;;;;;;;10.10;8.03;;;12.10;99.90;;;;;;5059629;28;20491;-62
2024/02/18 09:57:05;;;;;;;8.00;6.90;;;12.20;99.90;;;;;;5057854;28;20473;-60
2024/02/18 09:59:32;;;;;;;10.70;8.83;;;12.20;99.90;;;;;;5055663;28;20513;-60
2024/02/18 10:02:00;;;;;;;9.00;7.70;;;12.20;99.90;;;;;;5054807;28;20489;-60
2024/02/18 10:04:27;;;;;;;11.43;7.47;;;12.30;99.90;;;;;;5054960;28;20934;-60
2024/02/18 10:06:54;;;;;;;10.13;8.30;;;12.40;99.90;;;;;;5055250;28;20453;-60
2024/02/18 10:09:21;;;;;;;11.10;7.80;;;12.40;99.90;;;;;;5055720;28;20455;-60
2024/02/18 10:11:48;;;;;;;9.13;8.07;;;12.40;99.90;;;;;;5056361;28;20456;-61
2024/02/18 10:14:22;;;;;;;8.83;6.90;;;12.40;99.90;;;;;;5057997;28;20491;-62
2024/02/18 10:16:49;;;;;;;9.40;7.73;;;12.40;99.90;;;;;;5057577;28;20440;-59
2024/02/18 10:19:16;;;;;;;10.10;8.27;;;12.30;99.90;;;;;;5056155;28;20471;-60
2024/02/18 10:21:43;;;;;;;9.30;8.00;;;12.30;99.90;;;;;;5056373;28;20478;-61
2024/02/18 10:24:10;;;;;;;10.03;7.90;;;12.30;99.90;;;;;;5054601;28;20506;-61
2024/02/18 10:26:37;;;;;;;12.63;8.00;;;12.30;99.90;;;;;;5054365;28;20512;-61
2024/02/18 10:29:05;;;;;;;9.30;8.10;;;12.40;99.90;;;;;;5054545;28;20446;-60
2024/02/18 10:31:33;;;;;;;9.33;7.00;;;12.50;99.90;;;;;;5054700;28;20476;-62
2024/02/18 10:34:00;;;;;;;12.67;7.87;;;12.60;99.90;;;;;;5054213;28;20491;-61
2024/02/18 10:36:31;;;;;;;7.73;6.93;;;12.60;99.90;;;;;;5054183;28;20541;-59
2024/02/18 10:39:03;;;;;;;9.27;6.60;;;12.60;99.90;;;;;;5054183;28;20451;-61
2024/02/18 10:41:34;;;;;;;8.33;7.40;;;12.70;99.90;;;;;;5054603;28;20505;-62
2024/02/18 10:44:03;;;;;;;9.50;6.40;;;12.70;99.90;;;;;;5054043;28;20462;-61
2024/02/18 10:46:33;;;;;;;14.90;7.17;;;12.70;99.90;;;;;;5054315;28;20451;-60
2024/02/18 10:49:09;;;;;;;11.00;7.17;;;12.70;99.90;;;;;;5056511;28;20433;-61
2024/02/18 10:51:40;;;;;;;9.47;7.53;;;12.70;99.90;;;;;;5056043;28;20462;-61
2024/02/18 10:54:20;;;;;;;7.10;6.40;;;12.80;99.90;;;;;;5053352;28;21031;-61
2024/02/18 10:56:47;;;;;;;10.47;7.50;;;12.90;99.90;;;;;;5055224;28;20858;-60
2024/02/18 10:59:20;;;;;;;11.43;7.43;;;12.90;99.90;;;;;;5056760;28;20443;-62
2024/02/18 11:02:01;;;;;;;11.27;8.47;;;12.90;99.90;;;;;;5053141;28;20895;-60
2024/02/18 11:04:28;;;;;;;12.03;7.40;;;12.90;99.90;;;;;;5053653;28;20434;-61
2024/02/18 11:06:56;;;;;;;10.30;6.80;;;12.70;99.90;;;;;;5053688;28;20952;-60
2024/02/18 11:09:24;;;;;;;9.07;7.40;;;12.60;99.90;;;;;;5053510;28;20447;-61
2024/02/18 11:11:52;;;;;;;9.50;6.57;;;12.50;99.90;;;;;;5053212;28;20473;-60
2024/02/18 11:14:20;;;;;;;8.50;6.10;;;12.30;99.90;;;;;;5053128;28;20472;-60
2024/02/18 11:16:49;;;;;;;8.03;5.80;;;12.20;99.90;;;;;;5053275;28;20458;-61
2024/02/18 11:19:18;;;;;;;7.33;6.20;;;12.00;99.90;;;;;;5052821;28;20957;-62
2024/02/18 11:21:47;;;;;;;7.83;6.40;;;11.80;99.90;;;;;;5052746;28;20893;-61
2024/02/18 11:24:14;;;;;;;7.90;6.60;;;11.70;99.90;;;;;;5052881;28;20895;-62
2024/02/18 11:26:41;;;;;;;9.47;7.00;;;11.60;99.90;;;;;;5052883;28;20874;-62
2024/02/18 11:29:08;;;;;;;7.57;6.77;;;11.60;99.90;;;;;;5053134;28;20496;-60
2024/02/18 11:31:35;;;;;;;8.50;6.10;;;11.50;99.90;;;;;;5053556;28;20634;-62
2024/02/18 11:34:04;;;;;;;8.20;6.50;;;11.50;99.90;;;;;;5053311;28;20483;-61
2024/02/18 11:36:30;;;;;;;10.97;7.63;;;11.40;99.90;;;;;;5052940;28;20440;-61
2024/02/18 11:38:58;;;;;;;9.20;7.20;;;11.40;99.90;;;;;;5053165;28;20602;-60
2024/02/18 11:41:28;;;;;;;10.27;7.40;;;11.40;99.90;;;;;;5053200;28;20976;-62
2024/02/18 11:43:55;;;;;;;9.73;7.20;;;11.40;99.90;;;;;;5054677;28;20776;-65
2024/02/18 11:46:25;;;;;;;8.27;6.90;;;11.40;99.90;;;;;;5053973;28;20441;-61
2024/02/18 11:48:52;;;;;;;10.73;8.43;;;11.50;99.90;;;;;;5053200;28;20526;-62
2024/02/18 11:51:21;;;;;;;10.90;7.50;;;11.50;99.90;;;;;;5053140;28;20547;-62
2024/02/18 11:53:48;;;;;;;10.90;8.50;;;11.60;99.90;;;;;;5053299;28;20863;-61
2024/02/18 11:56:16;;;;;;;10.27;7.63;;;11.60;99.90;;;;;;5053439;28;20442;-62
2024/02/18 11:58:44;;;;;;;12.13;7.17;;;11.60;99.90;;;;;;5053138;28;20456;-62
2024/02/18 12:01:12;;;;;;;11.40;7.33;;;11.60;99.90;;;;;;5053110;28;20486;-61
2024/02/18 12:03:39;;;;;;;9.10;7.60;;;11.60;99.90;;;;;;5055283;28;20779;-61
2024/02/18 12:06:06;;;;;;;8.60;6.80;;;11.60;99.90;;;;;;5053099;28;20439;-60
2024/02/18 12:08:34;;;;;;;7.60;6.57;;;11.60;99.90;;;;;;5052650;28;20985;-61
2024/02/18 12:11:03;;;;;;;9.63;6.93;;;11.60;99.90;;;;;;5052841;28;20560;-61
2024/02/18 12:13:30;;;;;;;10.17;7.20;;;11.60;99.90;;;;;;5052821;28;20452;-61
2024/02/18 12:15:58;;;;;;;9.20;7.20;;;11.50;99.90;;;;;;5052469;28;20442;-61
2024/02/18 12:18:25;;;;;;;13.20;8.30;;;11.40;99.90;;;;;;5052460;28;20918;-61
2024/02/18 12:20:53;;;;;;;10.10;7.40;;;11.30;99.90;;;;;;5052185;28;20449;-61
2024/02/18 12:23:20;;;;;;;12.40;8.07;;;11.20;99.90;;;;;;5052295;28;20443;-61
2024/02/18 12:25:49;;;;;;;11.17;8.40;;;11.10;99.90;;;;;;5052696;28;20447;-62
2024/02/18 12:28:16;;;;;;;12.40;7.30;;;11.00;99.90;;;;;;5052674;28;20455;-61
2024/02/18 12:30:45;;;;;;;14.00;8.07;;;10.90;99.90;;;;;;5052601;28;20442;-64
2024/02/18 12:33:13;;;;;;;11.63;8.43;;;10.90;99.90;;;;;;5053139;28;20995;-62
2024/02/18 12:35:40;;;;;;;11.43;8.37;;;10.80;99.90;;;;;;5056598;28;20629;-61
2024/02/18 12:38:08;;;;;;;10.10;7.33;;;10.80;99.90;;;;;;5056585;28;20450;-61
2024/02/18 12:40:37;;;;;;;12.47;8.00;;;10.70;99.90;;;;;;5056734;28;20449;-62
2024/02/18 12:43:06;;;;;;;13.57;8.63;;;10.70;99.90;;;;;;5056865;28;20619;-62